createdAt,value
2023-02-03T00:02:18.418Z,18.80
2023-02-03T00:04:49.429Z,18.80
2023-02-03T00:07:21.693Z,19.00
2023-02-03T00:09:52.686Z,19.10
2023-02-03T00:12:23.302Z,19.30
2023-02-03T00:14:55.742Z,19.40
2023-02-03T00:17:26.404Z,19.40
2023-02-03T00:19:58.208Z,19.50
2023-02-03T00:22:28.801Z,19.60
2023-02-03T00:24:59.603Z,19.40
2023-02-03T00:27:31.061Z,19.10
2023-02-03T00:30:04.922Z,18.80
2023-02-03T00:32:37.243Z,18.60
2023-02-03T00:35:08.395Z,18.40
2023-02-03T00:37:38.957Z,18.10
2023-02-03T00:40:10.287Z,18.00
2023-02-03T00:42:40.952Z,18.20
2023-02-03T00:45:13.315Z,18.50
2023-02-03T00:47:44.260Z,18.90
2023-02-03T00:50:15.326Z,19.30
2023-02-03T00:52:45.895Z,19.40
2023-02-03T00:55:16.687Z,19.40
2023-02-03T00:57:47.300Z,19.20
2023-02-03T01:00:21.027Z,18.90
2023-02-03T01:02:51.953Z,18.80
2023-02-03T01:05:22.921Z,18.70
2023-02-03T01:07:53.698Z,18.80
2023-02-03T01:10:26.381Z,19.10
2023-02-03T01:12:57.174Z,19.30
2023-02-03T01:15:27.965Z,19.20
2023-02-03T01:17:58.615Z,18.90
2023-02-03T01:20:36.869Z,18.60
2023-02-03T01:23:07.564Z,18.70
2023-02-03T01:25:39.289Z,18.40
2023-02-03T01:28:09.993Z,18.10
2023-02-03T01:30:41.075Z,18.20
2023-02-03T01:33:11.725Z,18.40
2023-02-03T01:35:42.548Z,18.90
2023-02-03T01:38:13.137Z,19.30
2023-02-03T01:40:49.823Z,19.40
2023-02-03T01:43:38.305Z,19.10
2023-02-03T01:46:39.906Z,19.00
2023-02-03T01:49:27.604Z,19.00
2023-02-03T01:51:58.860Z,19.10
2023-02-03T01:54:39.609Z,19.30
2023-02-03T01:57:24.367Z,19.50
2023-02-03T01:59:58.930Z,19.40
2023-02-03T02:02:29.985Z,19.70
2023-02-03T02:05:09.441Z,20.10
2023-02-03T02:07:42.891Z,20.40
2023-02-03T02:10:13.693Z,20.40
2023-02-03T02:12:44.652Z,20.10
2023-02-03T02:15:16.162Z,19.80
2023-02-03T02:18:30.661Z,19.50
2023-02-03T02:21:38.527Z,19.30
2023-02-03T02:24:42.531Z,19.40
2023-02-03T02:27:13.143Z,19.50
2023-02-03T02:29:55.879Z,19.50
2023-02-03T02:32:29.487Z,19.40
2023-02-03T02:35:30.697Z,19.30
2023-02-03T02:38:26.251Z,19.10
2023-02-03T02:41:35.050Z,19.00
2023-02-03T02:44:25.354Z,19.20
2023-02-03T02:47:04.973Z,19.60
2023-02-03T02:49:58.541Z,20.00
2023-02-03T02:52:32.615Z,20.30
2023-02-03T02:55:27.943Z,20.50
2023-02-03T02:58:03.894Z,20.80
2023-02-03T03:00:36.651Z,21.10
2023-02-03T03:03:27.557Z,21.20
2023-02-03T03:06:10.614Z,21.20
2023-02-03T03:08:52.447Z,21.20
2023-02-03T03:11:23.046Z,21.30
2023-02-03T03:13:56.455Z,21.30
2023-02-03T03:16:30.167Z,21.20
2023-02-03T03:19:07.994Z,21.10
2023-02-03T03:21:47.473Z,21.10
2023-02-03T03:24:22.761Z,21.00
2023-02-03T03:26:59.282Z,20.90
2023-02-03T03:29:41.589Z,20.90
2023-02-03T03:32:12.590Z,21.10
2023-02-03T03:34:44.788Z,21.20
2023-02-03T03:37:26.434Z,21.30
2023-02-03T03:40:02.375Z,21.30
2023-02-03T03:43:17.077Z,21.30
2023-02-03T03:45:57.886Z,21.20
2023-02-03T03:48:38.007Z,21.10
2023-02-03T03:51:23.930Z,20.80
2023-02-03T03:53:56.859Z,20.50
2023-02-03T03:56:40.065Z,20.20
2023-02-03T03:59:14.939Z,20.10
2023-02-03T04:01:46.794Z,20.00
2023-02-03T04:04:22.333Z,19.70
2023-02-03T04:06:52.543Z,19.60
2023-02-03T04:09:22.962Z,19.60
2023-02-03T04:12:06.492Z,19.60
2023-02-03T04:14:42.799Z,19.50
2023-02-03T04:17:13.047Z,19.50
2023-02-03T04:19:43.936Z,19.40
2023-02-03T04:22:14.585Z,19.40
2023-02-03T04:24:45.513Z,19.30
2023-02-03T04:27:16.174Z,19.20
2023-02-03T04:29:46.801Z,19.30
2023-02-03T04:32:17.635Z,19.50
2023-02-03T04:34:48.628Z,19.50
2023-02-03T04:37:19.269Z,19.70
2023-02-03T04:39:51.473Z,19.70
2023-02-03T04:42:22.265Z,19.70
2023-02-03T04:44:53.047Z,19.70
2023-02-03T04:47:24.041Z,19.70
2023-02-03T04:49:54.599Z,19.80
2023-02-03T04:52:25.412Z,19.90
2023-02-03T04:54:56.167Z,19.90
2023-02-03T04:57:26.787Z,20.00
2023-02-03T04:59:57.320Z,19.80
2023-02-03T05:02:28.056Z,19.50
2023-02-03T05:04:58.709Z,19.30
2023-02-03T05:07:29.539Z,19.20
2023-02-03T05:10:00.261Z,19.20
2023-02-03T05:12:31.021Z,19.10
2023-02-03T05:15:01.318Z,19.10
2023-02-03T05:17:32.950Z,19.10
2023-02-03T05:20:03.946Z,19.10
2023-02-03T05:22:37.322Z,19.20
2023-02-03T05:25:08.802Z,19.30
2023-02-03T05:27:42.421Z,19.30
2023-02-03T05:30:15.060Z,19.40
2023-02-03T05:32:45.722Z,19.40
2023-02-03T05:35:16.634Z,19.50
2023-02-03T05:37:50.133Z,19.50
2023-02-03T05:40:38.742Z,19.40
2023-02-03T05:43:10.218Z,19.30
2023-02-03T05:45:42.572Z,19.20
2023-02-03T05:48:13.951Z,19.20
2023-02-03T05:50:44.657Z,19.30
2023-02-03T05:53:15.781Z,19.40
2023-02-03T05:55:50.934Z,19.40
2023-02-03T05:58:22.060Z,19.50
2023-02-03T06:00:53.101Z,19.50
2023-02-03T06:03:23.688Z,19.50
2023-02-03T06:05:54.103Z,19.40
2023-02-03T06:08:33.813Z,19.20
2023-02-03T06:11:04.494Z,19.20
2023-02-03T06:13:35.503Z,19.10
2023-02-03T06:16:07.842Z,19.10
2023-02-03T06:18:40.097Z,19.10
2023-02-03T06:21:11.085Z,19.00
2023-02-03T06:23:42.509Z,18.90
2023-02-03T06:26:13.405Z,18.90
2023-02-03T06:28:44.581Z,18.80
2023-02-03T06:31:15.361Z,18.70
2023-02-03T06:33:46.555Z,18.70
2023-02-03T06:36:17.219Z,18.60
2023-02-03T06:38:47.876Z,18.60
2023-02-03T06:41:18.640Z,18.60
2023-02-03T06:43:51.704Z,18.50
2023-02-03T06:46:22.529Z,18.40
2023-02-03T06:48:53.367Z,18.30
2023-02-03T06:51:26.852Z,18.20
2023-02-03T06:53:57.565Z,18.20
2023-02-03T06:56:30.089Z,18.30
2023-02-03T06:59:01.108Z,18.40
2023-02-03T07:01:31.884Z,18.40
2023-02-03T07:04:03.112Z,18.40
2023-02-03T07:06:36.340Z,18.30
2023-02-03T07:09:08.879Z,18.30
2023-02-03T07:11:39.483Z,18.20
2023-02-03T07:14:10.333Z,18.10
2023-02-03T07:16:42.308Z,18.10
2023-02-03T07:19:13.972Z,18.10
2023-02-03T07:21:46.228Z,18.00
2023-02-03T07:24:19.701Z,18.00
2023-02-03T07:26:51.878Z,17.90
2023-02-03T07:29:22.387Z,17.90
2023-02-03T07:31:55.437Z,17.80
2023-02-03T07:34:26.725Z,17.80
2023-02-03T07:36:57.852Z,17.80
2023-02-03T07:39:30.815Z,17.90
2023-02-03T07:42:02.861Z,17.90
2023-02-03T07:44:34.165Z,17.90
2023-02-03T07:47:06.276Z,17.90
2023-02-03T07:49:37.731Z,17.80
2023-02-03T07:52:08.859Z,17.80
2023-02-03T07:54:40.081Z,17.70
2023-02-03T07:57:10.732Z,17.60
2023-02-03T07:59:45.390Z,17.60
2023-02-03T08:02:16.565Z,17.60
2023-02-03T08:04:47.732Z,17.60
2023-02-03T08:07:18.525Z,17.70
2023-02-03T08:09:50.456Z,17.70
2023-02-03T08:12:21.180Z,17.70
2023-02-03T08:14:51.939Z,17.70
2023-02-03T08:17:23.663Z,17.70
2023-02-03T08:19:55.513Z,17.60
2023-02-03T08:22:27.157Z,17.60
2023-02-03T08:24:57.832Z,17.50
2023-02-03T08:27:28.529Z,17.40
2023-02-03T08:29:59.327Z,17.40
2023-02-03T08:32:32.062Z,17.30
2023-02-03T08:35:02.973Z,17.30
2023-02-03T08:37:34.682Z,17.20
2023-02-03T08:40:06.009Z,17.10
2023-02-03T08:42:36.866Z,17.10
2023-02-03T08:45:08.565Z,17.00
2023-02-03T08:47:40.062Z,17.00
2023-02-03T08:50:14.139Z,16.90
2023-02-03T08:52:44.820Z,16.80
2023-02-03T08:55:15.638Z,16.80
2023-02-03T08:57:46.834Z,16.70
2023-02-03T09:00:18.597Z,16.60
2023-02-03T09:02:49.722Z,16.50
2023-02-03T09:05:21.219Z,16.50
2023-02-03T09:07:51.954Z,16.40
2023-02-03T09:10:24.048Z,16.40
2023-02-03T09:12:55.727Z,16.40
2023-02-03T09:15:29.970Z,16.30
2023-02-03T09:18:03.849Z,16.30
2023-02-03T09:20:35.413Z,16.20
2023-02-03T09:23:07.757Z,16.20
2023-02-03T09:25:39.734Z,16.10
2023-02-03T09:28:11.258Z,16.00
2023-02-03T09:30:42.424Z,16.00
2023-02-03T09:33:13.661Z,16.00
2023-02-03T09:35:46.103Z,15.90
2023-02-03T09:38:20.716Z,15.80
2023-02-03T09:41:17.316Z,15.80
2023-02-03T09:44:08.605Z,15.70
2023-02-03T09:46:51.103Z,15.60
2023-02-03T09:49:29.481Z,15.50
2023-02-03T09:52:11.481Z,15.50
2023-02-03T09:55:06.728Z,15.40
2023-02-03T09:57:51.851Z,15.30
2023-02-03T10:00:33.727Z,15.20
2023-02-03T10:03:18.014Z,15.10
2023-02-03T10:06:16.529Z,15.10
2023-02-03T10:09:00.528Z,14.90
2023-02-03T10:11:55.342Z,14.90
2023-02-03T10:15:04.234Z,14.80
2023-02-03T10:17:45.956Z,14.70
2023-02-03T10:20:45.634Z,14.60
2023-02-03T10:23:24.602Z,14.60
2023-02-03T10:26:01.314Z,14.50
2023-02-03T10:28:38.409Z,14.50
2023-02-03T10:31:37.167Z,14.40
2023-02-03T10:34:20.980Z,14.40
2023-02-03T10:37:00.506Z,14.20
2023-02-03T10:39:53.024Z,14.20
2023-02-03T10:42:25.952Z,14.20
2023-02-03T10:45:02.501Z,14.10
2023-02-03T10:47:41.505Z,14.00
2023-02-03T10:50:24.440Z,14.00
2023-02-03T10:53:14.928Z,14.00
2023-02-03T10:55:47.092Z,13.90
2023-02-03T10:58:31.251Z,13.80
2023-02-03T11:01:19.707Z,13.90
2023-02-03T11:04:07.539Z,13.80
2023-02-03T11:06:38.834Z,13.80
2023-02-03T11:09:45.422Z,13.70
2023-02-03T11:12:21.482Z,13.60
2023-02-03T11:14:55.603Z,13.60
2023-02-03T11:17:32.778Z,13.60
2023-02-03T11:20:19.931Z,13.60
2023-02-03T11:22:51.994Z,13.60
2023-02-03T11:25:34.960Z,13.70
2023-02-03T11:28:10.699Z,13.80
2023-02-03T11:30:41.715Z,13.90
2023-02-03T11:33:26.447Z,13.90
2023-02-03T11:36:02.694Z,13.90
2023-02-03T11:38:38.730Z,13.90
2023-02-03T11:41:09.403Z,13.90
2023-02-03T11:43:40.089Z,13.90
2023-02-03T11:46:12.082Z,14.00
2023-02-03T11:48:57.607Z,14.00
2023-02-03T11:51:41.842Z,14.00
2023-02-03T11:54:49.761Z,14.00
2023-02-03T11:57:47.432Z,14.00
2023-02-03T12:00:37.336Z,14.00
2023-02-03T12:03:42.950Z,13.90
2023-02-03T12:06:13.545Z,13.90
2023-02-03T12:09:01.396Z,13.80
2023-02-03T12:11:40.944Z,13.80
2023-02-03T12:14:35.973Z,13.80
2023-02-03T12:17:24.272Z,13.70
2023-02-03T12:20:20.707Z,13.70
2023-02-03T12:23:24.650Z,13.60
2023-02-03T12:26:02.403Z,13.50
2023-02-03T12:28:46.377Z,13.40
2023-02-03T12:31:58.281Z,13.40
2023-02-03T12:34:51.685Z,13.30
2023-02-03T12:37:45.262Z,13.30
2023-02-03T12:40:22.726Z,13.20
2023-02-03T12:43:07.280Z,13.00
2023-02-03T12:45:41.867Z,13.00
2023-02-03T12:48:28.193Z,12.90
2023-02-03T12:51:09.640Z,12.90
2023-02-03T12:53:55.794Z,12.90
2023-02-03T12:56:33.056Z,12.80
2023-02-03T12:59:25.256Z,12.80
2023-02-03T13:01:59.877Z,12.70
2023-02-03T13:04:43.746Z,12.70
2023-02-03T13:07:32.735Z,12.70
2023-02-03T13:10:09.351Z,12.70
2023-02-03T13:12:48.335Z,12.70
2023-02-03T13:15:22.011Z,12.70
2023-02-03T13:18:01.633Z,12.70
2023-02-03T13:20:38.083Z,12.70
2023-02-03T13:23:12.722Z,12.70
2023-02-03T13:26:08.810Z,12.60
2023-02-03T13:28:53.374Z,12.50
2023-02-03T13:31:42.077Z,12.50
2023-02-03T13:34:52.915Z,12.50
2023-02-03T13:37:28.367Z,12.40
2023-02-03T13:40:32.591Z,12.40
2023-02-03T13:43:10.757Z,12.40
2023-02-03T13:45:49.575Z,12.40
2023-02-03T13:48:33.756Z,12.40
2023-02-03T13:51:23.509Z,12.40
2023-02-03T13:54:02.950Z,12.40
2023-02-03T13:56:35.377Z,12.50
2023-02-03T13:59:18.732Z,12.50
2023-02-03T14:01:49.626Z,12.50
2023-02-03T14:04:29.915Z,12.50
2023-02-03T14:07:07.009Z,12.60
2023-02-03T14:09:41.500Z,12.60
2023-02-03T14:12:36.290Z,12.60
2023-02-03T14:15:33.775Z,12.70
2023-02-03T14:18:28.430Z,12.70
2023-02-03T14:21:15.575Z,12.80
2023-02-03T14:23:51.869Z,12.90
2023-02-03T14:26:46.201Z,13.00
2023-02-03T14:29:33.361Z,13.00
2023-02-03T14:32:08.698Z,13.10
2023-02-03T14:34:42.620Z,13.10
2023-02-03T14:37:31.792Z,13.10
2023-02-03T14:40:23.942Z,13.10
2023-02-03T14:43:10.094Z,13.10
2023-02-03T14:46:34.764Z,13.10
2023-02-03T14:49:17.504Z,13.10
2023-02-03T14:52:10.964Z,13.10
2023-02-03T14:55:23.104Z,13.10
2023-02-03T14:58:00.377Z,13.10
2023-02-03T15:00:35.707Z,13.10
2023-02-03T15:03:12.650Z,13.10
2023-02-03T15:05:53.265Z,13.20
2023-02-03T15:08:35.459Z,13.20
2023-02-03T15:11:29.185Z,13.20
2023-02-03T15:14:19.513Z,13.20
2023-02-03T15:16:56.110Z,13.20
2023-02-03T15:19:30.758Z,13.10
2023-02-03T15:22:01.473Z,13.10
2023-02-03T15:24:39.660Z,13.10
2023-02-03T15:27:28.138Z,13.10
2023-02-03T15:30:01.902Z,13.10
2023-02-03T15:32:37.818Z,13.10
2023-02-03T15:35:16.576Z,13.10
2023-02-03T15:37:55.767Z,13.10
2023-02-03T15:40:30.786Z,13.00
2023-02-03T15:43:22.717Z,13.00
2023-02-03T15:46:14.903Z,13.00
2023-02-03T15:48:55.535Z,13.00
2023-02-03T15:51:31.803Z,12.90
2023-02-03T15:54:43.287Z,12.90
2023-02-03T15:57:36.671Z,12.90
2023-02-03T16:00:31.992Z,12.80
2023-02-03T16:03:04.694Z,12.80
2023-02-03T16:05:42.277Z,12.70
2023-02-03T16:08:44.544Z,12.70
2023-02-03T16:11:29.162Z,12.60
2023-02-03T16:14:05.631Z,12.50
2023-02-03T16:17:02.521Z,12.50
2023-02-03T16:19:36.689Z,12.50
2023-02-03T16:22:07.499Z,12.40
2023-02-03T16:24:48.067Z,12.40
2023-02-03T16:27:31.059Z,12.30
2023-02-03T16:30:28.593Z,12.30
2023-02-03T16:33:31.155Z,12.10
2023-02-03T16:36:29.589Z,12.10
2023-02-03T16:39:21.833Z,12.00
2023-02-03T16:42:10.599Z,11.90
2023-02-03T16:44:59.357Z,11.90
2023-02-03T16:47:50.790Z,11.90
2023-02-03T16:50:41.777Z,11.80
2023-02-03T16:53:24.490Z,11.80
2023-02-03T16:55:57.339Z,11.70
2023-02-03T16:58:28.624Z,11.70
2023-02-03T17:01:02.068Z,11.70
2023-02-03T17:03:34.999Z,11.70
2023-02-03T17:06:11.024Z,11.60
2023-02-03T17:08:43.991Z,11.60
2023-02-03T17:11:19.308Z,11.60
2023-02-03T17:13:51.154Z,11.60
2023-02-03T17:16:28.313Z,11.50
2023-02-03T17:19:00.291Z,11.50
2023-02-03T17:21:32.357Z,11.40
2023-02-03T17:24:03.291Z,11.40
2023-02-03T17:26:36.312Z,11.30
2023-02-03T17:29:07.457Z,11.30
2023-02-03T17:31:39.289Z,11.30
2023-02-03T17:34:09.985Z,11.20
2023-02-03T17:36:40.696Z,11.10
2023-02-03T17:55:36.169Z,10.90
2023-02-03T17:58:06.874Z,10.80
2023-02-03T18:00:37.702Z,10.80
2023-02-03T18:03:08.676Z,10.80
2023-02-03T18:05:43.014Z,10.80
2023-02-03T18:08:20.596Z,10.80
2023-02-03T18:10:55.318Z,10.80
2023-02-03T18:13:29.214Z,10.80
2023-02-03T18:16:00.293Z,10.70
2023-02-03T18:18:31.436Z,10.70
2023-02-03T18:21:02.246Z,10.70
2023-02-03T18:23:35.453Z,10.70
2023-02-03T18:26:07.422Z,10.70
2023-02-03T18:28:38.797Z,10.70
2023-02-03T18:31:13.909Z,10.70
2023-02-03T18:33:46.226Z,10.70
2023-02-03T18:36:18.956Z,10.70
2023-02-03T18:38:51.664Z,10.60
2023-02-03T18:41:25.313Z,10.60
2023-02-03T18:43:56.215Z,10.50
2023-02-03T18:46:32.329Z,10.50
2023-02-03T18:49:03.517Z,10.50
2023-02-03T18:51:34.255Z,10.50
2023-02-03T18:54:06.275Z,10.40
2023-02-03T18:56:39.628Z,10.40
2023-02-03T18:59:16.896Z,10.40
2023-02-03T19:01:48.670Z,10.30
2023-02-03T19:04:19.444Z,10.30
2023-02-03T19:06:50.252Z,10.30
2023-02-03T19:09:23.920Z,10.30
2023-02-03T19:11:55.928Z,10.30
2023-02-03T19:14:27.925Z,10.40
2023-02-03T19:16:58.692Z,10.40
2023-02-03T19:19:29.481Z,10.50
2023-02-03T19:22:00.617Z,10.50
2023-02-03T19:24:31.317Z,10.50
2023-02-03T19:27:01.976Z,10.50
2023-02-03T19:29:32.695Z,10.50
2023-02-03T19:32:03.672Z,10.50
2023-02-03T19:34:34.655Z,10.50
2023-02-03T19:37:05.327Z,10.50
2023-02-03T19:39:36.164Z,10.50
2023-02-03T19:42:07.188Z,10.60
2023-02-03T19:44:39.118Z,10.50
2023-02-03T19:47:11.391Z,10.60
2023-02-03T19:49:42.306Z,10.60
2023-02-03T19:52:13.011Z,10.60
2023-02-03T19:54:43.867Z,10.70
2023-02-03T19:57:15.497Z,10.70
2023-02-03T19:59:46.144Z,10.80
2023-02-03T20:02:18.041Z,10.80
2023-02-03T20:04:50.491Z,10.80
2023-02-03T20:07:21.424Z,10.90
2023-02-03T20:09:52.239Z,11.00
2023-02-03T20:12:22.994Z,11.00
2023-02-03T20:14:54.100Z,11.10
2023-02-03T20:17:25.041Z,11.20
2023-02-03T20:19:56.099Z,11.20
2023-02-03T20:22:26.886Z,11.30
2023-02-03T20:24:59.125Z,11.30
2023-02-03T20:27:31.116Z,11.40
2023-02-03T20:30:02.008Z,11.40
2023-02-03T20:32:34.630Z,11.40
2023-02-03T20:35:08.661Z,11.50
2023-02-03T20:37:39.361Z,11.50
2023-02-03T20:40:21.514Z,11.50
2023-02-03T20:42:56.903Z,11.60
2023-02-03T20:45:27.927Z,11.60
2023-02-03T20:47:59.844Z,11.60
2023-02-03T20:50:41.450Z,11.70
2023-02-03T20:53:20.649Z,11.70
2023-02-03T20:55:52.421Z,11.70
2023-02-03T20:58:31.053Z,11.80
2023-02-03T21:01:04.201Z,11.80
2023-02-03T21:03:54.429Z,11.80
2023-02-03T21:06:26.010Z,11.90
2023-02-03T21:08:56.744Z,12.00
2023-02-03T21:11:29.489Z,12.10
2023-02-03T21:14:00.518Z,12.10
2023-02-03T21:16:41.380Z,12.20
2023-02-03T21:19:19.664Z,12.40
2023-02-03T21:21:54.303Z,12.50
2023-02-03T21:24:34.146Z,12.60
2023-02-03T21:27:05.537Z,12.70
2023-02-03T21:29:38.969Z,12.90
2023-02-03T21:32:16.941Z,13.00
2023-02-03T21:34:50.214Z,13.10
2023-02-03T21:37:25.860Z,13.20
2023-02-03T21:39:56.601Z,13.30
2023-02-03T21:42:45.415Z,13.50
2023-02-03T21:45:19.626Z,13.70
2023-02-03T21:47:53.022Z,14.00
2023-02-03T21:50:36.523Z,14.20
2023-02-03T21:53:14.677Z,14.30
2023-02-03T21:55:47.810Z,14.60
2023-02-03T21:58:32.905Z,14.80
2023-02-03T22:01:08.731Z,15.20
2023-02-03T22:03:46.476Z,15.50
2023-02-03T22:06:17.166Z,15.70
2023-02-03T22:08:53.890Z,15.90
2023-02-03T22:11:26.999Z,16.00
2023-02-03T22:13:58.426Z,16.30
2023-02-03T22:16:32.218Z,16.60
2023-02-03T22:19:04.956Z,16.90
2023-02-03T22:21:36.973Z,17.20
2023-02-03T22:24:08.196Z,17.50
2023-02-03T22:26:39.177Z,17.80
2023-02-03T22:29:12.030Z,18.00
2023-02-03T22:31:45.853Z,18.30
2023-02-03T22:34:18.611Z,18.40
2023-02-03T22:36:49.274Z,18.60
2023-02-03T22:39:19.933Z,19.00
2023-02-03T22:41:50.676Z,19.30
2023-02-03T22:44:22.358Z,19.50
2023-02-03T22:46:54.273Z,19.60
2023-02-03T22:49:24.850Z,19.60
2023-02-03T22:51:55.600Z,19.50
2023-02-03T22:54:27.232Z,19.50
2023-02-03T22:56:58.009Z,19.50
2023-02-03T22:59:28.316Z,19.50
2023-02-03T23:02:00.652Z,19.50
2023-02-03T23:04:31.435Z,19.50
2023-02-03T23:07:02.227Z,19.60
2023-02-03T23:09:34.116Z,19.50
2023-02-03T23:12:04.903Z,19.50
2023-02-03T23:14:35.991Z,19.40
2023-02-03T23:17:06.774Z,19.40
2023-02-03T23:19:37.481Z,19.30
2023-02-03T23:22:08.242Z,19.10
2023-02-03T23:24:38.967Z,19.10
2023-02-03T23:27:10.948Z,19.10
2023-02-03T23:29:41.875Z,19.00
2023-02-03T23:32:17.057Z,18.90
2023-02-03T23:35:05.435Z,18.70
2023-02-03T23:37:36.303Z,18.50
2023-02-03T23:40:09.332Z,18.30
2023-02-03T23:42:39.991Z,18.20
2023-02-03T23:45:14.043Z,18.10
2023-02-03T23:47:46.374Z,18.20
2023-02-03T23:50:19.237Z,18.20
2023-02-03T23:52:51.779Z,18.30
2023-02-03T23:55:24.080Z,18.20
2023-02-03T23:57:56.021Z,18.20
